Startpagina
METAR-TAF:

METAR-TAF

Vliegvelden :

Aeropuerto de Gran Canaria

Gran Canaria, Spanje

breedte: 27-56N, lengte: 015-23W, hoogte: 23 m

Actueel weer

Dit bericht is 12 minuten geleden gemaakt, om 15:00 UTC
Wind 23 kt uit het noordnoordoosten
Temperatuur 27°C
Vochtigheid 54%
Druk 1015 hPa
Zicht 10 km of meer
Weinig wolken op 3000 ft

METAR: GCLP 191500Z 03023KT 9999 FEW030 27/17 Q1015 NOSIG

Tijdstip: 16:12 (15:12 UTC)

Verwachting

Dit bericht is 1 uur en het 12 minuten geleden gemaakt, om 14:00 UTC
Verwachting geldig van 19 om 15 UTC tot 20 om 15 UTC
Wind 23 kt uit het noordnoordoosten
Zicht 10 km of meer
Weinig wolken op 2500 ft
Kans 40% :
Tijdelijke
van 19 om 15 UTC tot 19 om 20 UTC
Wind 23 kt uit het noordnoordoosten met uitschieters tot 33 kt

TAF: GCLP 191400Z 1915/2015 02023KT 9999 FEW025 TX27/1915Z TN22/1923Z PROB40 TEMPO 1915/1920 02023G33KT

Waarnemingen en weersverwachtingen van meer dan 4000 vliegvelden (METAR en TAF).

De beschikbare stations zijn de gele en rode punten op de kaart.

Ga met uw muis naar het station om de naam te zien.

Klik dan om waarnemingen en weersverwachtingen te zien.

kaart wijzigen: klik op de groene knoppen met een zwart kruis om in te zoomen, op de groene knop met een streepje om uit te zoomen of op de groene pijlen voor aangrenzende kaarten.


METAR-TAF: